Time;durP1;ratioP1;P1;durP2;ratioP2;P2;SDS_P1;SDS_P2;PMS_P1;PMS_P2;Temp;Humidity;BMP_temperature;BMP_pressure;BME280_temperature;BME280_humidity;BME280_pressure;Samples;Min_cycle;Max_cycle;Signal;HPM_P1;HPM_P2
2021/11/02 00:01:41;;;;;;;7.63;1.20;;;;;;;;;;5075890;28;20031;-68
2021/11/02 00:04:07;;;;;;;2.45;1.02;;;;;;;;;;5076399;28;20040;-68
2021/11/02 00:06:35;;;;;;;3.60;1.00;;;;;;;;;;5075840;28;20074;-69
2021/11/02 00:09:02;;;;;;;3.90;1.10;;;;;;;;;;5075241;28;20044;-68
2021/11/02 00:11:28;;;;;;;6.47;1.25;;;;;;;;;;5075653;28;20024;-68
2021/11/02 00:13:56;;;;;;;3.85;1.00;;;;;;;;;;5076214;28;20071;-69
2021/11/02 00:16:23;;;;;;;5.53;1.05;;;;;;;;;;5075335;28;20031;-68
2021/11/02 00:19:01;;;;;;;4.47;1.08;;;;;;;;;;5075687;28;20028;-67
2021/11/02 00:21:34;;;;;;;4.90;1.27;;;;;;;;;;5075358;28;20027;-68
2021/11/02 00:24:16;;;;;;;2.47;1.05;;;;;;;;;;5075414;28;20017;-68
2021/11/02 00:26:43;;;;;;;3.53;1.17;;;;;;;;;;5075168;28;20029;-68
2021/11/02 00:29:09;;;;;;;4.13;1.30;;;;;;;;;;5075219;28;20539;-68
2021/11/02 00:31:35;;;;;;;2.25;1.10;;;;;;;;;;5074961;28;20395;-68
2021/11/02 00:34:01;;;;;;;2.00;1.13;;;;;;;;;;5074919;28;20108;-67
2021/11/02 00:36:28;;;;;;;4.03;1.05;;;;;;;;;;5074838;28;20032;-67
2021/11/02 00:38:54;;;;;;;3.38;1.00;;;;;;;;;;5074749;28;20036;-67
2021/11/02 00:41:20;;;;;;;4.10;1.10;;;;;;;;;;5075427;28;20060;-67
2021/11/02 00:43:48;;;;;;;2.78;1.00;;;;;;;;;;5074914;28;20036;-67
2021/11/02 00:46:14;;;;;;;6.80;1.10;;;;;;;;;;5075219;28;20170;-67
2021/11/02 00:48:40;;;;;;;3.15;1.20;;;;;;;;;;5075150;28;20025;-67
2021/11/02 00:51:06;;;;;;;4.25;1.27;;;;;;;;;;5073725;28;20043;-68
2021/11/02 00:53:35;;;;;;;1.73;0.90;;;;;;;;;;5075090;28;20028;-68
2021/11/02 00:56:01;;;;;;;6.25;1.00;;;;;;;;;;5073408;28;20036;-66
2021/11/02 00:58:27;;;;;;;2.28;0.88;;;;;;;;;;5073160;28;20089;-66
2021/11/02 01:00:53;;;;;;;2.22;1.00;;;;;;;;;;5074393;28;20024;-68
2021/11/02 01:03:19;;;;;;;1.92;0.90;;;;;;;;;;5074502;28;20372;-69
2021/11/02 01:05:45;;;;;;;1.73;0.85;;;;;;;;;;5074469;28;20024;-68
2021/11/02 01:08:11;;;;;;;5.18;1.00;;;;;;;;;;5074414;28;20036;-67
2021/11/02 01:10:37;;;;;;;3.08;1.00;;;;;;;;;;5074354;28;20029;-68
2021/11/02 01:13:03;;;;;;;4.03;1.10;;;;;;;;;;5074375;28;20031;-67
2021/11/02 01:15:31;;;;;;;3.85;1.10;;;;;;;;;;5074149;28;20025;-66
2021/11/02 01:17:57;;;;;;;0.98;0.88;;;;;;;;;;5074027;28;20027;-67
2021/11/02 01:20:24;;;;;;;2.67;1.10;;;;;;;;;;5072752;28;20021;-69
2021/11/02 01:22:51;;;;;;;3.08;0.90;;;;;;;;;;5074520;28;20020;-69
2021/11/02 01:25:18;;;;;;;1.33;0.95;;;;;;;;;;5074020;28;20025;-69
2021/11/02 01:27:44;;;;;;;3.50;1.00;;;;;;;;;;5074362;28;20436;-67
2021/11/02 01:30:11;;;;;;;2.72;1.00;;;;;;;;;;5072693;28;20045;-66
2021/11/02 01:32:38;;;;;;;5.18;1.00;;;;;;;;;;5072428;28;20032;-68
2021/11/02 01:35:05;;;;;;;4.55;1.10;;;;;;;;;;5073861;28;20028;-68
2021/11/02 01:37:31;;;;;;;5.47;0.85;;;;;;;;;;5073897;28;20471;-67
2021/11/02 01:39:59;;;;;;;2.63;1.10;;;;;;;;;;5072294;28;20036;-68
2021/11/02 01:42:25;;;;;;;4.47;0.98;;;;;;;;;;5073849;28;20456;-67
2021/11/02 01:44:53;;;;;;;0.85;0.70;;;;;;;;;;5073915;28;20048;-67
2021/11/02 01:47:20;;;;;;;4.03;1.30;;;;;;;;;;5073431;28;20048;-67
2021/11/02 01:49:46;;;;;;;1.60;0.90;;;;;;;;;;5073569;28;20071;-69
2021/11/02 01:52:12;;;;;;;3.35;1.00;;;;;;;;;;5073184;28;20031;-68
2021/11/02 01:54:38;;;;;;;2.67;0.75;;;;;;;;;;5072155;28;20028;-67
2021/11/02 01:57:05;;;;;;;1.30;0.82;;;;;;;;;;5073838;28;20029;-69
2021/11/02 01:59:33;;;;;;;5.47;1.13;;;;;;;;;;5073139;28;20404;-67
2021/11/02 02:02:19;;;;;;;4.55;1.20;;;;;;;;;;5073480;28;20051;-67
2021/11/02 02:05:05;;;;;;;1.58;0.77;;;;;;;;;;5073089;28;20059;-67
2021/11/02 02:07:43;;;;;;;1.20;0.90;;;;;;;;;;5073277;28;20077;-67
2021/11/02 02:10:33;;;;;;;2.60;1.05;;;;;;;;;;5072836;28;20518;-66
2021/11/02 02:13:05;;;;;;;2.75;1.02;;;;;;;;;;5073101;28;20021;-68
2021/11/02 02:16:07;;;;;;;2.17;0.88;;;;;;;;;;5073191;28;20104;-68
2021/11/02 02:18:52;;;;;;;1.17;0.80;;;;;;;;;;4975587;28;20026;-67
2021/11/02 02:21:30;;;;;;;5.65;0.93;;;;;;;;;;5067467;28;20423;-67
2021/11/02 02:23:59;;;;;;;2.05;0.93;;;;;;;;;;5073506;28;20475;-67
2021/11/02 02:26:44;;;;;;;1.50;0.90;;;;;;;;;;5071982;28;20044;-67
2021/11/02 02:29:10;;;;;;;4.30;1.25;;;;;;;;;;5071753;28;20376;-66
2021/11/02 02:31:38;;;;;;;4.50;0.98;;;;;;;;;;5073242;28;20029;-67
2021/11/02 02:34:05;;;;;;;0.85;0.80;;;;;;;;;;5072884;28;20029;-68
2021/11/02 02:36:33;;;;;;;4.25;0.98;;;;;;;;;;5073191;28;20032;-67
2021/11/02 02:39:00;;;;;;;2.25;0.70;;;;;;;;;;5073200;28;20029;-67
2021/11/02 02:41:26;;;;;;;4.20;0.80;;;;;;;;;;5073016;28;20021;-68
2021/11/02 02:43:53;;;;;;;3.00;0.95;;;;;;;;;;5073182;28;20032;-69
2021/11/02 02:46:19;;;;;;;1.45;0.70;;;;;;;;;;5071790;28;20028;-67
2021/11/02 02:48:46;;;;;;;2.42;1.05;;;;;;;;;;5072770;28;20064;-68
2021/11/02 02:51:13;;;;;;;3.33;1.00;;;;;;;;;;5072756;28;20056;-67
2021/11/02 02:53:46;;;;;;;4.10;2.03;;;;;;;;;;5072623;28;20074;-68
2021/11/02 02:56:12;;;;;;;2.88;1.00;;;;;;;;;;5071394;28;20033;-68
2021/11/02 02:58:42;;;;;;;4.47;1.02;;;;;;;;;;5072993;28;20025;-68
2021/11/02 03:01:09;;;;;;;2.00;0.90;;;;;;;;;;5072956;28;20028;-67
2021/11/02 03:03:35;;;;;;;3.42;1.02;;;;;;;;;;5073113;28;20104;-67
2021/11/02 03:06:02;;;;;;;1.85;0.85;;;;;;;;;;5072994;28;20074;-67
2021/11/02 03:08:29;;;;;;;1.52;0.90;;;;;;;;;;5072756;28;20097;-67
2021/11/02 03:10:55;;;;;;;2.75;0.98;;;;;;;;;;5070897;28;20021;-68
2021/11/02 03:13:23;;;;;;;1.95;0.90;;;;;;;;;;5072699;28;20021;-67
2021/11/02 03:16:02;;;;;;;2.08;0.80;;;;;;;;;;5072869;28;20024;-67
2021/11/02 03:59:14;;;;;;;1.60;0.95;;;;;;;;;;5076446;28;20031;-68
2021/11/02 04:30:00;;;;;;;5.63;1.00;;;;;;;;;;5075048;28;19919;-67
2021/11/02 04:57:53;;;;;;;12.05;1.30;;;;;;;;;;5075229;28;20044;-66
2021/11/02 05:07:55;;;;;;;15.00;1.60;;;;;;;;;;5075133;28;20043;-68
2021/11/02 05:49:22;;;;;;;9.40;1.60;;;;;;;;;;5073754;28;20059;-66
2021/11/02 05:56:56;;;;;;;5.90;1.33;;;;;;;;;;5073851;28;20413;-66
2021/11/02 05:59:31;;;;;;;23.20;2.00;;;;;;;;;;5074269;28;20031;-67
2021/11/02 06:04:55;;;;;;;10.32;1.52;;;;;;;;;;5072837;28;20043;-64
2021/11/02 06:08:10;;;;;;;10.45;1.35;;;;;;;;;;5072266;28;20119;-66
2021/11/02 06:10:53;;;;;;;8.63;1.70;;;;;;;;;;5063383;28;20052;-66
2021/11/02 06:30:11;;;;;;;13.15;1.70;;;;;;;;;;5072489;28;20468;-65
2021/11/02 06:32:41;;;;;;;9.13;1.92;;;;;;;;;;5072224;28;20017;-66
2021/11/02 06:35:19;;;;;;;10.57;2.20;;;;;;;;;;5072456;28;20024;-66
2021/11/02 06:38:04;;;;;;;18.13;2.08;;;;;;;;;;5072332;28;20041;-67
2021/11/02 06:43:21;;;;;;;12.27;2.15;;;;;;;;;;5072466;28;20028;-69
2021/11/02 07:15:50;;;;;;;15.75;2.70;;;;;;;;;;5066675;28;20147;-65
2021/11/02 07:18:20;;;;;;;14.45;1.67;;;;;;;;;;5075498;28;20487;-64
2021/11/02 07:23:24;;;;;;;14.63;2.45;;;;;;;;;;5075539;28;20449;-66
2021/11/02 08:47:09;;;;;;;6.93;2.13;;;;;;;;;;5073770;28;20043;-65
2021/11/02 08:49:40;;;;;;;5.85;2.70;;;;;;;;;;5072663;28;20036;-65
2021/11/02 08:52:07;;;;;;;5.50;2.60;;;;;;;;;;5073009;28;20025;-65
2021/11/02 08:54:36;;;;;;;7.20;1.98;;;;;;;;;;5084712;28;20059;-64
2021/11/02 08:57:05;;;;;;;9.07;2.13;;;;;;;;;;5093350;28;20016;-63
2021/11/02 08:59:34;;;;;;;8.02;2.72;;;;;;;;;;5093820;28;20016;-64
2021/11/02 09:02:02;;;;;;;11.43;2.70;;;;;;;;;;5093698;28;20024;-65
2021/11/02 09:04:39;;;;;;;9.95;2.50;;;;;;;;;;5093437;28;20815;-65
2021/11/02 09:07:06;;;;;;;6.13;2.28;;;;;;;;;;5093695;28;20016;-65
2021/11/02 09:09:40;;;;;;;5.45;2.17;;;;;;;;;;5093194;28;20072;-64
2021/11/02 09:12:07;;;;;;;10.65;2.35;;;;;;;;;;5088333;28;20451;-65
2021/11/02 09:14:36;;;;;;;4.03;2.17;;;;;;;;;;5072377;28;20483;-65
2021/11/02 09:17:03;;;;;;;9.07;2.22;;;;;;;;;;5073440;28;20055;-64
2021/11/02 09:19:30;;;;;;;5.40;2.15;;;;;;;;;;5073196;28;20108;-64
2021/11/02 09:21:56;;;;;;;4.05;2.20;;;;;;;;;;5073182;28;20024;-66
2021/11/02 09:24:24;;;;;;;14.90;2.28;;;;;;;;;;5072822;28;20028;-64
2021/11/02 09:26:50;;;;;;;8.98;2.53;;;;;;;;;;5072694;28;20039;-64
2021/11/02 09:29:17;;;;;;;10.25;2.65;;;;;;;;;;5070416;28;20031;-63
2021/11/02 09:31:43;;;;;;;9.85;2.78;;;;;;;;;;5071390;28;20028;-63
2021/11/02 09:34:09;;;;;;;14.75;2.30;;;;;;;;;;5072109;28;20116;-64
2021/11/02 09:36:41;;;;;;;9.90;2.40;;;;;;;;;;5070946;28;20031;-65
2021/11/02 09:39:10;;;;;;;9.63;2.20;;;;;;;;;;5070195;28;20043;-65
2021/11/02 09:41:38;;;;;;;6.13;2.72;;;;;;;;;;5073422;28;20358;-65
2021/11/02 09:44:24;;;;;;;17.55;3.10;;;;;;;;;;5072973;28;20021;-65
2021/11/02 09:47:00;;;;;;;6.95;2.55;;;;;;;;;;5071310;28;20082;-65
2021/11/02 09:49:35;;;;;;;9.38;2.67;;;;;;;;;;5072228;28;20123;-65
2021/11/02 09:52:20;;;;;;;11.40;2.50;;;;;;;;;;5071416;28;20020;-65
2021/11/02 09:55:05;;;;;;;17.02;2.50;;;;;;;;;;5071904;28;20054;-65
2021/11/02 09:57:49;;;;;;;17.73;2.70;;;;;;;;;;5072638;28;20060;-65
2021/11/02 10:00:32;;;;;;;10.13;2.90;;;;;;;;;;5071033;28;20052;-66
2021/11/02 10:03:22;;;;;;;9.00;2.60;;;;;;;;;;5072632;28;20024;-64
2021/11/02 10:06:01;;;;;;;10.45;2.88;;;;;;;;;;5066708;28;20495;-65
2021/11/02 10:08:33;;;;;;;9.80;2.90;;;;;;;;;;5072371;28;20090;-66
2021/11/02 10:11:10;;;;;;;12.23;3.25;;;;;;;;;;5072486;28;20028;-64
2021/11/02 10:13:40;;;;;;;9.07;3.03;;;;;;;;;;5072311;28;20021;-65
2021/11/02 10:16:11;;;;;;;5.95;2.63;;;;;;;;;;5070250;28;20037;-64
2021/11/02 10:18:45;;;;;;;18.00;2.50;;;;;;;;;;5071564;28;20111;-66
2021/11/02 10:21:11;;;;;;;5.15;2.50;;;;;;;;;;5072310;28;20027;-66
2021/11/02 10:23:51;;;;;;;16.55;2.75;;;;;;;;;;5072402;28;20029;-66
2021/11/02 10:26:19;;;;;;;9.18;2.50;;;;;;;;;;5072214;28;20041;-65
2021/11/02 10:29:05;;;;;;;8.15;2.58;;;;;;;;;;5072511;28;20110;-64
2021/11/02 10:31:36;;;;;;;28.38;3.97;;;;;;;;;;5072492;28;20042;-66
2021/11/02 10:34:10;;;;;;;24.02;3.72;;;;;;;;;;5072405;28;20103;-66
2021/11/02 10:36:56;;;;;;;28.13;3.47;;;;;;;;;;5072013;28;20360;-66
2021/11/02 10:39:33;;;;;;;32.25;3.00;;;;;;;;;;5072091;28;20024;-66
2021/11/02 10:42:08;;;;;;;17.10;3.45;;;;;;;;;;5072523;28;20020;-67
2021/11/02 10:44:48;;;;;;;26.52;3.92;;;;;;;;;;5072458;28;20360;-65
2021/11/02 10:47:24;;;;;;;20.85;4.10;;;;;;;;;;5072732;28;20021;-66
2021/11/02 10:50:02;;;;;;;22.00;3.80;;;;;;;;;;5072476;28;20162;-67
2021/11/02 10:52:31;;;;;;;16.10;3.78;;;;;;;;;;5072390;28;20035;-65
2021/11/02 10:55:18;;;;;;;16.05;3.30;;;;;;;;;;5071036;28;20028;-65
2021/11/02 10:58:04;;;;;;;29.48;3.40;;;;;;;;;;5072366;28;20108;-66
2021/11/02 11:00:32;;;;;;;19.15;3.65;;;;;;;;;;5071889;28;20036;-65
2021/11/02 11:02:59;;;;;;;21.98;4.03;;;;;;;;;;5071028;28;20024;-64
2021/11/02 11:05:25;;;;;;;12.90;3.50;;;;;;;;;;5070370;28;20029;-66
2021/11/02 11:07:52;;;;;;;9.85;3.53;;;;;;;;;;5071896;28;20028;-65
2021/11/02 11:10:23;;;;;;;9.18;3.60;;;;;;;;;;5071244;28;20472;-64
2021/11/02 11:12:55;;;;;;;16.73;3.85;;;;;;;;;;5071747;28;20028;-65
2021/11/02 11:15:21;;;;;;;15.68;4.32;;;;;;;;;;5071623;28;20055;-67
2021/11/02 11:17:55;;;;;;;8.48;3.53;;;;;;;;;;5071603;28;20088;-65
2021/11/02 11:20:24;;;;;;;7.38;4.22;;;;;;;;;;5071328;28;20051;-67
2021/11/02 11:22:51;;;;;;;7.55;4.40;;;;;;;;;;5071794;28;20041;-66
2021/11/02 11:25:20;;;;;;;14.65;4.60;;;;;;;;;;5071389;28;20025;-67
2021/11/02 11:27:51;;;;;;;10.13;4.22;;;;;;;;;;5071178;28;20024;-67
2021/11/02 11:30:17;;;;;;;8.32;4.78;;;;;;;;;;5070033;28;20147;-68
2021/11/02 11:32:44;;;;;;;11.60;4.05;;;;;;;;;;5071643;28;20043;-66
2021/11/02 11:35:11;;;;;;;7.78;4.10;;;;;;;;;;5071348;28;20024;-64
2021/11/02 11:37:41;;;;;;;5.78;4.20;;;;;;;;;;5071495;28;20024;-65
2021/11/02 11:40:13;;;;;;;13.20;4.72;;;;;;;;;;5071412;28;20019;-66
2021/11/02 11:42:39;;;;;;;6.35;4.65;;;;;;;;;;5071688;28;20078;-64
2021/11/02 11:45:05;;;;;;;8.63;4.45;;;;;;;;;;5072137;28;20025;-65
2021/11/02 11:47:33;;;;;;;10.93;5.00;;;;;;;;;;5074918;28;20464;-64
2021/11/02 11:50:12;;;;;;;9.93;4.43;;;;;;;;;;5073197;28;20036;-65
2021/11/02 11:52:44;;;;;;;8.65;4.53;;;;;;;;;;5074997;28;20024;-66
2021/11/02 11:55:10;;;;;;;6.30;4.47;;;;;;;;;;5075094;28;20028;-65
2021/11/02 11:57:38;;;;;;;6.38;4.35;;;;;;;;;;5074825;28;20564;-65
2021/11/02 12:00:04;;;;;;;6.65;4.60;;;;;;;;;;5074629;28;20475;-65
2021/11/02 12:02:53;;;;;;;8.02;4.55;;;;;;;;;;5074777;28;20032;-64
2021/11/02 12:05:21;;;;;;;7.45;4.30;;;;;;;;;;5066747;28;20045;-65
2021/11/02 12:08:07;;;;;;;10.48;4.22;;;;;;;;;;5074635;28;20032;-65
2021/11/02 12:10:34;;;;;;;6.55;4.50;;;;;;;;;;5074643;28;20428;-64
2021/11/02 12:13:03;;;;;;;9.68;4.43;;;;;;;;;;5073211;28;20085;-64
2021/11/02 12:15:39;;;;;;;10.52;4.38;;;;;;;;;;5073457;28;20115;-66
2021/11/02 12:18:07;;;;;;;4.45;4.03;;;;;;;;;;5074797;28;20032;-67
2021/11/02 12:20:33;;;;;;;7.00;4.15;;;;;;;;;;5074553;28;20502;-64
2021/11/02 12:23:02;;;;;;;5.85;4.40;;;;;;;;;;5073169;28;20365;-65
2021/11/02 12:25:33;;;;;;;10.73;4.50;;;;;;;;;;5074909;28;20488;-69
2021/11/02 12:27:59;;;;;;;8.05;4.07;;;;;;;;;;5074443;28;20060;-71
2021/11/02 12:30:26;;;;;;;6.20;3.80;;;;;;;;;;5074751;28;20040;-66
2021/11/02 12:32:56;;;;;;;7.32;3.83;;;;;;;;;;5074732;28;20029;-66
2021/11/02 12:35:23;;;;;;;8.60;3.80;;;;;;;;;;5074928;28;20486;-66
2021/11/02 12:37:51;;;;;;;4.13;3.45;;;;;;;;;;5074533;28;20016;-66
2021/11/02 12:40:23;;;;;;;8.27;3.88;;;;;;;;;;5074486;28;20025;-65
2021/11/02 12:42:49;;;;;;;4.07;3.38;;;;;;;;;;5074347;28;20103;-73
2021/11/02 12:45:17;;;;;;;6.60;3.60;;;;;;;;;;5074300;28;20130;-68
2021/11/02 12:47:46;;;;;;;8.07;3.42;;;;;;;;;;5074388;28;20016;-68
2021/11/02 12:50:12;;;;;;;5.80;3.30;;;;;;;;;;5072971;28;20090;-67
2021/11/02 12:52:39;;;;;;;11.38;2.83;;;;;;;;;;5074032;28;20024;-67
2021/11/02 12:55:07;;;;;;;9.00;2.58;;;;;;;;;;5073700;28;20062;-71
2021/11/02 12:57:37;;;;;;;3.17;2.88;;;;;;;;;;5073974;28;20056;-69
2021/11/02 13:00:26;;;;;;;3.00;2.65;;;;;;;;;;5073770;28;20052;-69
2021/11/02 13:02:56;;;;;;;7.60;2.38;;;;;;;;;;5073196;28;20111;-66
2021/11/02 13:05:27;;;;;;;4.07;2.65;;;;;;;;;;5074007;28;20428;-69
2021/11/02 13:08:04;;;;;;;3.20;2.53;;;;;;;;;;5073870;28;20021;-70
2021/11/02 13:10:31;;;;;;;2.50;2.30;;;;;;;;;;5073782;28;20043;-66
2021/11/02 13:13:17;;;;;;;3.85;2.38;;;;;;;;;;5073732;28;20036;-68
2021/11/02 13:15:50;;;;;;;6.38;2.45;;;;;;;;;;5073678;28;20032;-69
2021/11/02 13:18:29;;;;;;;3.87;2.23;;;;;;;;;;5073625;28;20095;-68
2021/11/02 13:21:00;;;;;;;3.13;1.90;;;;;;;;;;5073473;28;20024;-69
2021/11/02 13:23:36;;;;;;;2.10;1.90;;;;;;;;;;5073360;28;20027;-68
2021/11/02 13:26:13;;;;;;;2.97;2.00;;;;;;;;;;5071819;28;20052;-66
2021/11/02 13:28:40;;;;;;;3.13;2.20;;;;;;;;;;5073511;28;20158;-65
2021/11/02 13:31:07;;;;;;;4.43;1.60;;;;;;;;;;5073807;28;20165;-64
2021/11/02 13:33:34;;;;;;;4.45;1.90;;;;;;;;;;5073647;28;20107;-70
2021/11/02 13:36:01;;;;;;;2.42;1.75;;;;;;;;;;5073979;28;20021;-69
2021/11/02 13:38:32;;;;;;;2.80;1.80;;;;;;;;;;5072258;28;20543;-66
2021/11/02 13:41:09;;;;;;;2.03;1.70;;;;;;;;;;5073454;28;20025;-70
2021/11/02 13:43:42;;;;;;;2.50;1.50;;;;;;;;;;5073625;28;20090;-65
2021/11/02 13:46:08;;;;;;;;;;;;;;;;;;5074163;28;20016;-69
2021/11/02 13:48:34;;;;;;;2.08;1.45;;;;;;;;;;5073139;28;20419;-67
2021/11/02 13:51:01;;;;;;;1.77;1.40;;;;;;;;;;5073337;28;20365;-68
2021/11/02 13:53:32;;;;;;;2.08;1.40;;;;;;;;;;5073659;28;20021;-69
2021/11/02 13:55:58;;;;;;;2.15;1.40;;;;;;;;;;5072328;28;20035;-65
2021/11/02 13:58:24;;;;;;;1.42;1.17;;;;;;;;;;5071926;28;20021;-70
2021/11/02 14:00:50;;;;;;;1.27;1.17;;;;;;;;;;5073626;28;20414;-66
2021/11/02 14:03:20;;;;;;;2.58;1.42;;;;;;;;;;5072688;28;20095;-74
2021/11/02 14:05:47;;;;;;;2.20;1.23;;;;;;;;;;5073008;28;20025;-72
2021/11/02 14:08:13;;;;;;;2.45;1.30;;;;;;;;;;5070862;28;20065;-67
2021/11/02 14:10:50;;;;;;;1.10;1.00;;;;;;;;;;5073075;28;20108;-66
2021/11/02 14:13:16;;;;;;;3.47;1.13;;;;;;;;;;5073054;28;20475;-66
2021/11/02 14:15:42;;;;;;;3.00;1.10;;;;;;;;;;5071326;28;20108;-66
2021/11/02 14:18:10;;;;;;;1.20;0.90;;;;;;;;;;5071396;28;20025;-66
2021/11/02 14:20:37;;;;;;;1.42;1.00;;;;;;;;;;5071384;28;20065;-67
2021/11/02 14:23:04;;;;;;;1.33;1.00;;;;;;;;;;5072510;28;20024;-67
2021/11/02 14:25:40;;;;;;;1.05;0.95;;;;;;;;;;5072422;28;20020;-70
2021/11/02 14:28:07;;;;;;;2.33;0.90;;;;;;;;;;5071743;28;20036;-65
2021/11/02 14:30:33;;;;;;;2.33;0.90;;;;;;;;;;5072524;28;20032;-66
2021/11/02 14:33:06;;;;;;;0.93;0.88;;;;;;;;;;5071519;28;20127;-67
2021/11/02 14:35:31;;;;;;;;;;;;;;;;;;5073059;28;20027;-66
2021/11/02 14:38:02;;;;;;;2.22;0.90;;;;;;;;;;5071559;28;19909;-67
2021/11/02 14:40:35;;;;;;;1.10;1.00;;;;;;;;;;5072416;28;20020;-65
2021/11/02 14:43:13;;;;;;;2.35;1.05;;;;;;;;;;5072631;28;20021;-69
2021/11/02 14:45:42;;;;;;;2.28;0.90;;;;;;;;;;5071559;28;20024;-69
2021/11/02 14:48:32;;;;;;;1.17;0.90;;;;;;;;;;5072105;28;20051;-66
2021/11/02 14:50:58;;;;;;;1.30;0.73;;;;;;;;;;5072368;28;20033;-66
2021/11/02 14:53:27;;;;;;;3.20;0.88;;;;;;;;;;5072192;28;20189;-68
2021/11/02 14:56:00;;;;;;;2.35;0.80;;;;;;;;;;5070813;28;20055;-66
2021/11/02 14:58:42;;;;;;;1.13;0.65;;;;;;;;;;5072073;28;20104;-66
2021/11/02 15:01:12;;;;;;;6.82;0.80;;;;;;;;;;5070696;28;20078;-65
2021/11/02 15:03:39;;;;;;;2.65;0.90;;;;;;;;;;5072167;28;20016;-67
2021/11/02 15:06:07;;;;;;;0.85;0.70;;;;;;;;;;5069763;28;20029;-66
2021/11/02 15:08:35;;;;;;;0.98;0.65;;;;;;;;;;5069606;28;20041;-65
2021/11/02 15:11:05;;;;;;;1.55;0.80;;;;;;;;;;5071170;28;20029;-68
2021/11/02 15:13:31;;;;;;;1.38;0.70;;;;;;;;;;5071006;28;20029;-65
2021/11/02 15:16:00;;;;;;;10.02;0.80;;;;;;;;;;5069348;28;20166;-65
2021/11/02 15:18:36;;;;;;;11.88;0.82;;;;;;;;;;5072141;28;20463;-63
2021/11/02 15:21:02;;;;;;;4.00;0.60;;;;;;;;;;5073497;28;20052;-67
2021/11/02 15:23:36;;;;;;;7.82;0.60;;;;;;;;;;5073310;28;20056;-69
2021/11/02 15:26:02;;;;;;;7.47;0.70;;;;;;;;;;5072982;28;20111;-67
2021/11/02 15:28:29;;;;;;;6.85;0.70;;;;;;;;;;5074197;28;20036;-66
2021/11/02 15:31:05;;;;;;;14.38;0.65;;;;;;;;;;5074234;28;20028;-66
2021/11/02 15:33:32;;;;;;;7.20;0.57;;;;;;;;;;5072842;28;20024;-67
2021/11/02 15:36:12;;;;;;;9.32;0.50;;;;;;;;;;5074051;28;20029;-66
2021/11/02 15:38:38;;;;;;;4.43;0.55;;;;;;;;;;5073270;28;20067;-66
2021/11/02 15:41:17;;;;;;;4.80;0.60;;;;;;;;;;5073058;28;20200;-66
2021/11/02 15:43:51;;;;;;;1.00;0.50;;;;;;;;;;5073481;28;20123;-65
2021/11/02 15:46:24;;;;;;;13.65;1.08;;;;;;;;;;5072609;28;20712;-66
2021/11/02 15:48:52;;;;;;;1.63;0.60;;;;;;;;;;5072443;28;20089;-66
2021/11/02 15:51:18;;;;;;;4.38;0.55;;;;;;;;;;5072930;28;20031;-66
2021/11/02 15:53:44;;;;;;;6.13;0.60;;;;;;;;;;5072706;28;20059;-70
2021/11/02 15:56:10;;;;;;;2.97;0.60;;;;;;;;;;5073024;28;20044;-70
2021/11/02 15:58:36;;;;;;;3.50;0.60;;;;;;;;;;5072221;28;20030;-67
2021/11/02 16:01:03;;;;;;;4.72;0.70;;;;;;;;;;5073841;28;20017;-67
2021/11/02 16:03:32;;;;;;;1.65;0.65;;;;;;;;;;5073035;28;20393;-69
2021/11/02 16:05:58;;;;;;;3.83;0.80;;;;;;;;;;5073501;28;20424;-67
2021/11/02 16:08:25;;;;;;;7.03;0.88;;;;;;;;;;5074309;28;20131;-67
2021/11/02 16:10:51;;;;;;;1.55;0.80;;;;;;;;;;5075012;28;20031;-69
2021/11/02 16:13:17;;;;;;;2.88;0.85;;;;;;;;;;5074179;28;20028;-66
2021/11/02 16:15:44;;;;;;;1.95;0.82;;;;;;;;;;5073957;28;20215;-67
2021/11/02 16:18:18;;;;;;;1.13;0.77;;;;;;;;;;5076160;28;20032;-68
2021/11/02 16:20:47;;;;;;;2.65;0.90;;;;;;;;;;5073461;28;20066;-68
2021/11/02 16:23:15;;;;;;;6.22;0.85;;;;;;;;;;5073999;28;20029;-66
2021/11/02 16:25:43;;;;;;;1.92;0.93;;;;;;;;;;5073239;28;20055;-66
2021/11/02 16:28:22;;;;;;;1.73;0.80;;;;;;;;;;5073579;28;20013;-67
2021/11/02 16:31:03;;;;;;;2.60;1.05;;;;;;;;;;5071621;28;20064;-68
2021/11/02 16:33:33;;;;;;;1.77;0.95;;;;;;;;;;5074599;28;20086;-67
2021/11/02 16:36:12;;;;;;;4.85;1.00;;;;;;;;;;5076607;28;20028;-68
2021/11/02 16:38:39;;;;;;;1.23;0.80;;;;;;;;;;5082899;28;20060;-68
2021/11/02 16:41:05;;;;;;;11.05;1.17;;;;;;;;;;5092486;28;20024;-68
2021/11/02 16:43:38;;;;;;;4.93;1.17;;;;;;;;;;5085362;28;20073;-66
2021/11/02 16:46:06;;;;;;;7.53;1.35;;;;;;;;;;5085763;28;20403;-67
2021/11/02 16:48:40;;;;;;;4.45;1.05;;;;;;;;;;5077138;28;20468;-66
2021/11/02 16:51:06;;;;;;;5.15;1.00;;;;;;;;;;5085674;28;20048;-66
2021/11/02 16:53:33;;;;;;;10.60;1.20;;;;;;;;;;5082422;28;20083;-66
2021/11/02 16:56:04;;;;;;;9.35;1.50;;;;;;;;;;5085289;28;20043;-66
2021/11/02 16:58:32;;;;;;;5.05;1.08;;;;;;;;;;5083405;28;20013;-66
2021/11/02 17:01:16;;;;;;;4.53;1.10;;;;;;;;;;5085878;28;20025;-66
2021/11/02 17:03:46;;;;;;;6.28;1.13;;;;;;;;;;5089994;28;20024;-65
2021/11/02 17:06:13;;;;;;;7.35;1.17;;;;;;;;;;5074239;28;20098;-65
2021/11/02 17:08:46;;;;;;;1.88;1.00;;;;;;;;;;5073492;28;20040;-65
2021/11/02 17:11:14;;;;;;;;;;;;;;;;;;5072911;28;20039;-65
2021/11/02 17:13:40;;;;;;;4.78;0.90;;;;;;;;;;5086261;28;19904;-65
2021/11/02 17:16:20;;;;;;;11.43;1.15;;;;;;;;;;5079737;28;20028;-65
2021/11/02 17:19:00;;;;;;;6.82;0.82;;;;;;;;;;5083101;28;20053;-65
2021/11/02 17:21:30;;;;;;;6.63;0.90;;;;;;;;;;5094259;28;20035;-65
2021/11/02 17:23:57;;;;;;;8.45;1.00;;;;;;;;;;5087443;28;20086;-68
2021/11/02 17:26:25;;;;;;;7.75;1.00;;;;;;;;;;5080535;28;20016;-68
2021/11/02 17:28:52;;;;;;;4.35;1.00;;;;;;;;;;5079633;28;20044;-67
2021/11/02 17:31:29;;;;;;;4.88;0.90;;;;;;;;;;5071653;28;20062;-67
2021/11/02 17:33:58;;;;;;;4.45;0.80;;;;;;;;;;5073580;28;20035;-67
2021/11/02 17:36:25;;;;;;;5.75;0.80;;;;;;;;;;5073238;28;20031;-66
2021/11/02 17:38:52;;;;;;;1.00;0.77;;;;;;;;;;5055230;28;20043;-66
2021/11/02 17:41:19;;;;;;;2.45;0.90;;;;;;;;;;5073314;28;20028;-65
2021/11/02 17:43:47;;;;;;;4.40;0.90;;;;;;;;;;5072923;28;20432;-65
2021/11/02 17:46:14;;;;;;;6.00;0.85;;;;;;;;;;5072805;28;20031;-66
2021/11/02 17:48:40;;;;;;;5.22;0.85;;;;;;;;;;5072639;28;20020;-66
2021/11/02 17:51:07;;;;;;;3.72;1.00;;;;;;;;;;5071267;28;20050;-65
2021/11/02 17:53:36;;;;;;;2.03;0.90;;;;;;;;;;5073221;28;20081;-66
2021/11/02 17:56:03;;;;;;;2.08;0.77;;;;;;;;;;5072646;28;20039;-66
2021/11/02 17:58:29;;;;;;;13.70;1.15;;;;;;;;;;5073167;28;20020;-64
2021/11/02 18:00:57;;;;;;;3.75;1.00;;;;;;;;;;5073392;28;20032;-65
2021/11/02 18:03:23;;;;;;;3.42;0.90;;;;;;;;;;5072939;28;20020;-64
2021/11/02 18:05:49;;;;;;;7.78;1.17;;;;;;;;;;5072405;28;20103;-65
2021/11/02 18:08:16;;;;;;;19.35;1.08;;;;;;;;;;5072174;28;20025;-65
2021/11/02 18:10:43;;;;;;;2.10;0.95;;;;;;;;;;5071991;28;20119;-65
2021/11/02 18:13:10;;;;;;;14.13;0.90;;;;;;;;;;5072775;28;20051;-64
2021/11/02 18:15:36;;;;;;;70.97;2.08;;;;;;;;;;5073875;28;20028;-65
2021/11/02 18:18:07;;;;;;;83.65;1.95;;;;;;;;;;5073561;28;20035;-65
2021/11/02 18:20:34;;;;;;;31.70;1.38;;;;;;;;;;5073364;28;20059;-66
2021/11/02 18:23:02;;;;;;;113.75;3.63;;;;;;;;;;5072941;28;20056;-62
2021/11/02 18:25:28;;;;;;;75.95;2.10;;;;;;;;;;5072379;28;20027;-64
2021/11/02 18:27:56;;;;;;;31.67;1.65;;;;;;;;;;5073496;28;20051;-66
2021/11/02 18:30:23;;;;;;;80.75;2.08;;;;;;;;;;5073398;28;20050;-64
2021/11/02 18:32:49;;;;;;;60.10;2.40;;;;;;;;;;5073180;28;20043;-65
2021/11/02 18:35:15;;;;;;;42.40;1.95;;;;;;;;;;5071796;28;20489;-65
2021/11/02 18:37:42;;;;;;;38.90;1.77;;;;;;;;;;5072593;28;20028;-64
2021/11/02 18:40:10;;;;;;;28.23;1.80;;;;;;;;;;5072517;28;20077;-66
2021/11/02 18:42:37;;;;;;;26.63;1.63;;;;;;;;;;5072599;28;20020;-65
2021/11/02 18:45:04;;;;;;;26.88;1.70;;;;;;;;;;5070197;28;20035;-67
2021/11/02 18:47:30;;;;;;;26.60;1.60;;;;;;;;;;5072147;28;20017;-67
2021/11/02 18:49:56;;;;;;;33.13;1.60;;;;;;;;;;5071568;28;20040;-67
2021/11/02 18:52:22;;;;;;;32.88;1.70;;;;;;;;;;5071714;28;20081;-66
2021/11/02 18:54:48;;;;;;;22.23;1.67;;;;;;;;;;5075552;28;20372;-65
2021/11/02 18:57:14;;;;;;;15.82;1.45;;;;;;;;;;5075918;28;20020;-65
2021/11/02 18:59:40;;;;;;;24.13;2.10;;;;;;;;;;5076333;28;20037;-66
2021/11/02 19:02:06;;;;;;;15.55;1.20;;;;;;;;;;5076503;28;20031;-66
2021/11/02 19:04:33;;;;;;;13.15;1.50;;;;;;;;;;5076279;28;20103;-66
2021/11/02 19:07:01;;;;;;;17.35;1.83;;;;;;;;;;5076343;28;20050;-66
2021/11/02 19:09:27;;;;;;;22.08;1.67;;;;;;;;;;5074736;28;20040;-65
2021/11/02 19:11:53;;;;;;;31.05;2.35;;;;;;;;;;5074758;28;20020;-65
2021/11/02 19:14:19;;;;;;;11.77;1.45;;;;;;;;;;5074622;28;20051;-66
2021/11/02 19:16:46;;;;;;;34.85;1.95;;;;;;;;;;5072749;28;20033;-64
2021/11/02 19:19:12;;;;;;;20.67;1.65;;;;;;;;;;5074210;28;20023;-66
2021/11/02 19:21:39;;;;;;;12.80;1.55;;;;;;;;;;5071827;28;20047;-66
2021/11/02 19:24:05;;;;;;;13.98;1.60;;;;;;;;;;5073541;28;20491;-66
2021/11/02 19:26:31;;;;;;;16.73;1.55;;;;;;;;;;5074149;28;20024;-66
2021/11/02 19:28:58;;;;;;;7.65;1.23;;;;;;;;;;5074469;28;20037;-66
2021/11/02 19:31:24;;;;;;;12.15;1.35;;;;;;;;;;5074266;28;20024;-68
2021/11/02 19:33:51;;;;;;;14.68;1.60;;;;;;;;;;5071741;28;20016;-66
2021/11/02 19:36:17;;;;;;;17.33;1.63;;;;;;;;;;5075274;28;20103;-65
2021/11/02 19:38:44;;;;;;;6.72;1.52;;;;;;;;;;5075200;28;20028;-63
2021/11/02 19:41:10;;;;;;;7.50;1.95;;;;;;;;;;5074949;28;20036;-65